createdAt,value
2019-02-15T00:00:44.830Z,15.30
2019-02-15T00:03:16.462Z,14.83
2019-02-15T00:05:48.105Z,16.13
2019-02-15T00:08:19.730Z,16.27
2019-02-15T00:10:51.393Z,17.17
2019-02-15T00:13:23.013Z,16.93
2019-02-15T00:15:54.653Z,16.07
2019-02-15T00:18:38.168Z,15.43
2019-02-15T00:21:14.786Z,16.60
2019-02-15T00:23:46.428Z,15.10
2019-02-15T00:26:18.081Z,15.83
2019-02-15T00:28:49.836Z,16.17
2019-02-15T00:31:21.893Z,16.17
2019-02-15T00:33:53.522Z,16.03
2019-02-15T00:36:25.144Z,16.30
2019-02-15T00:38:56.777Z,16.13
2019-02-15T00:41:28.416Z,15.83
2019-02-15T00:44:00.045Z,15.27
2019-02-15T00:46:40.692Z,16.63
2019-02-15T00:49:18.358Z,15.13
2019-02-15T00:52:08.292Z,16.33
2019-02-15T00:54:59.625Z,15.70
2019-02-15T00:57:53.175Z,17.03
2019-02-15T01:00:59.501Z,15.70
2019-02-15T01:03:40.034Z,15.83
2019-02-15T01:06:29.045Z,15.20
2019-02-15T01:09:23.327Z,16.00
2019-02-15T01:12:10.640Z,15.47
2019-02-15T01:14:42.261Z,16.13
2019-02-15T01:17:13.906Z,16.27
2019-02-15T01:19:45.533Z,17.23
2019-02-15T01:22:17.177Z,14.87
2019-02-15T01:24:48.806Z,17.57
2019-02-15T01:27:26.367Z,16.63
2019-02-15T01:30:16.141Z,18.10
2019-02-15T01:32:56.545Z,16.27
2019-02-15T01:35:37.441Z,17.53
2019-02-15T01:38:16.330Z,16.70
2019-02-15T01:41:09.601Z,16.00
2019-02-15T01:43:49.905Z,15.57
2019-02-15T01:46:28.278Z,16.53
2019-02-15T01:48:59.925Z,17.13
2019-02-15T01:51:31.542Z,16.30
2019-02-15T01:54:03.197Z,17.77
2019-02-15T01:56:34.818Z,15.43
2019-02-15T01:59:06.459Z,16.83
2019-02-15T02:01:38.177Z,16.30
2019-02-15T02:04:09.822Z,17.27
2019-02-15T02:06:41.448Z,17.00
2019-02-15T02:09:13.193Z,15.73
2019-02-15T02:11:44.821Z,17.70
2019-02-15T02:14:16.453Z,17.27
2019-02-15T02:16:48.074Z,17.37
2019-02-15T02:19:20.224Z,17.50
2019-02-15T02:21:51.953Z,18.13
2019-02-15T02:24:23.586Z,18.23
2019-02-15T02:26:55.212Z,18.20
2019-02-15T02:29:26.845Z,17.73
2019-02-15T02:31:58.479Z,17.13
2019-02-15T02:34:30.105Z,16.77
2019-02-15T02:37:01.731Z,19.37
2019-02-15T02:39:33.458Z,16.17
2019-02-15T02:42:05.077Z,15.27
2019-02-15T02:44:36.719Z,18.67
2019-02-15T02:47:08.349Z,19.13
2019-02-15T02:49:39.990Z,19.17
2019-02-15T02:52:11.594Z,19.00
2019-02-15T02:54:43.237Z,20.47
2019-02-15T02:57:14.842Z,19.23
2019-02-15T02:59:46.483Z,18.87
2019-02-15T03:02:18.105Z,18.90
2019-02-15T03:04:49.738Z,18.90
2019-02-15T03:07:21.449Z,18.23
2019-02-15T03:09:53.092Z,17.27
2019-02-15T03:12:24.711Z,18.73
2019-02-15T03:14:56.343Z,16.90
2019-02-15T03:17:27.957Z,16.13
2019-02-15T03:19:59.585Z,17.67
2019-02-15T03:22:31.205Z,18.40
2019-02-15T03:25:03.147Z,16.27
2019-02-15T03:27:34.855Z,17.80
2019-02-15T03:30:07.061Z,18.83
2019-02-15T03:32:38.700Z,17.67
2019-02-15T03:35:10.433Z,17.17
2019-02-15T03:37:50.766Z,16.90
2019-02-15T03:40:25.479Z,16.83
2019-02-15T03:42:57.195Z,17.23
2019-02-15T03:45:28.835Z,18.03
2019-02-15T03:48:00.466Z,19.57
2019-02-15T03:50:32.093Z,17.23
2019-02-15T03:53:03.715Z,17.87
2019-02-15T03:55:35.381Z,16.70
2019-02-15T03:58:07.133Z,18.23
2019-02-15T04:00:38.764Z,17.60
2019-02-15T04:03:10.498Z,17.93
2019-02-15T04:05:42.133Z,17.23
2019-02-15T04:08:13.774Z,17.57
2019-02-15T04:10:45.401Z,18.43
2019-02-15T04:13:17.028Z,17.07
2019-02-15T04:15:48.650Z,18.67
2019-02-15T04:18:20.275Z,16.77
2019-02-15T04:20:52.122Z,16.37
2019-02-15T04:23:23.751Z,18.77
2019-02-15T04:25:55.387Z,18.33
2019-02-15T04:28:29.109Z,19.57
2019-02-15T04:31:00.795Z,20.97
2019-02-15T04:33:32.424Z,19.37
2019-02-15T04:36:04.045Z,19.77
2019-02-15T04:38:35.666Z,19.40
2019-02-15T04:41:07.303Z,17.83
2019-02-15T04:43:38.914Z,18.87
2019-02-15T04:46:10.627Z,19.93
2019-02-15T04:48:42.313Z,19.80
2019-02-15T04:51:14.055Z,19.83
2019-02-15T04:53:45.675Z,20.83
2019-02-15T04:56:17.329Z,18.20
2019-02-15T04:58:48.946Z,16.70
2019-02-15T05:01:20.576Z,17.43
2019-02-15T05:03:52.267Z,17.70
2019-02-15T05:06:23.972Z,18.87
2019-02-15T05:08:55.589Z,17.57
2019-02-15T05:11:27.229Z,20.33
2019-02-15T05:13:58.853Z,16.60
2019-02-15T05:16:30.513Z,19.40
2019-02-15T05:19:02.131Z,18.27
2019-02-15T05:21:33.774Z,18.33
2019-02-15T05:24:05.429Z,18.13
2019-02-15T05:26:37.075Z,18.70
2019-02-15T05:29:08.705Z,18.23
2019-02-15T05:31:40.442Z,17.60
2019-02-15T05:34:12.164Z,18.77
2019-02-15T05:36:43.894Z,17.70
2019-02-15T05:39:15.512Z,18.23
2019-02-15T05:41:47.168Z,16.93
2019-02-15T05:44:18.783Z,17.73
2019-02-15T05:46:50.418Z,18.03
2019-02-15T05:49:22.050Z,17.67
2019-02-15T05:51:53.702Z,17.83
2019-02-15T05:54:25.379Z,16.57
2019-02-15T05:56:57.089Z,18.10
2019-02-15T05:59:28.846Z,18.77
2019-02-15T06:02:00.484Z,19.60
2019-02-15T06:04:32.126Z,17.10
2019-02-15T06:07:03.745Z,20.17
2019-02-15T06:09:35.384Z,19.47
2019-02-15T06:12:07.018Z,17.40
2019-02-15T06:14:38.650Z,18.23
2019-02-15T06:17:10.302Z,18.50
2019-02-15T06:19:41.923Z,18.60
2019-02-15T06:22:13.563Z,17.97
2019-02-15T06:24:45.243Z,16.13
2019-02-15T06:27:16.881Z,18.00
2019-02-15T06:29:48.505Z,18.73
2019-02-15T06:32:20.151Z,19.13
2019-02-15T06:34:51.920Z,17.73
2019-02-15T06:37:23.561Z,16.87
2019-02-15T06:39:55.185Z,16.87
2019-02-15T06:42:26.815Z,17.20
2019-02-15T06:44:58.465Z,16.93
2019-02-15T06:47:30.152Z,15.30
2019-02-15T06:50:01.791Z,17.77
2019-02-15T06:52:33.463Z,17.33
2019-02-15T06:55:05.145Z,18.43
2019-02-15T06:57:36.923Z,20.37
2019-02-15T07:00:27.551Z,18.83
2019-02-15T07:03:18.881Z,18.20
2019-02-15T07:05:50.510Z,18.00
2019-02-15T07:08:22.151Z,17.97
2019-02-15T07:10:54.557Z,17.87
2019-02-15T07:13:26.205Z,18.70
2019-02-15T07:15:57.840Z,18.00
2019-02-15T07:18:29.473Z,16.83
2019-02-15T07:21:01.112Z,17.60
2019-02-15T07:23:32.749Z,16.93
2019-02-15T07:26:04.361Z,17.37
2019-02-15T07:28:35.999Z,18.23
2019-02-15T07:31:07.633Z,16.80
2019-02-15T07:33:39.270Z,17.60
2019-02-15T07:36:10.905Z,18.37
2019-02-15T07:38:42.546Z,17.97
2019-02-15T07:41:14.162Z,19.53
2019-02-15T07:43:45.819Z,22.40
2019-02-15T07:46:17.481Z,23.73
2019-02-15T07:48:49.488Z,19.60
2019-02-15T07:51:21.110Z,14.00
2019-02-15T07:53:52.785Z,11.13
2019-02-15T07:56:24.438Z,8.20
2019-02-15T07:58:56.091Z,7.10
2019-02-15T08:01:27.718Z,7.93
2019-02-15T08:03:59.348Z,6.93
2019-02-15T08:06:30.973Z,7.83
2019-02-15T08:09:07.500Z,6.77
2019-02-15T08:11:39.129Z,6.70
2019-02-15T08:14:14.960Z,7.23
2019-02-15T08:16:44.295Z,7.40
2019-02-15T08:19:15.940Z,6.40
2019-02-15T08:21:47.637Z,6.60
2019-02-15T08:24:19.719Z,7.20
2019-02-15T08:26:51.377Z,6.43
2019-02-15T08:29:23.036Z,6.97
2019-02-15T08:31:54.737Z,6.47
2019-02-15T08:34:26.360Z,7.90
2019-02-15T08:36:58.002Z,7.23
2019-02-15T08:39:29.642Z,7.60
2019-02-15T08:42:04.438Z,8.57
2019-02-15T08:44:34.980Z,7.90
2019-02-15T08:47:06.606Z,8.07
2019-02-15T08:49:38.242Z,6.60
2019-02-15T08:52:09.862Z,7.90
2019-02-15T08:54:41.513Z,8.07
2019-02-15T08:57:13.240Z,8.97
2019-02-15T08:59:45.000Z,8.73
2019-02-15T09:02:19.630Z,8.57
2019-02-15T09:04:51.448Z,8.20
2019-02-15T09:07:23.107Z,8.98
2019-02-15T09:09:54.762Z,7.72
2019-02-15T09:12:26.443Z,8.13
2019-02-15T09:14:58.089Z,7.47
2019-02-15T09:17:32.548Z,7.75
2019-02-15T09:20:08.998Z,8.18
2019-02-15T09:22:40.845Z,7.62
2019-02-15T09:25:39.546Z,7.67
2019-02-15T09:28:25.310Z,8.10
2019-02-15T09:30:56.996Z,8.13
2019-02-15T09:33:28.806Z,8.05
2019-02-15T09:36:00.478Z,8.78
2019-02-15T09:38:32.141Z,7.65
2019-02-15T09:41:03.965Z,8.28
2019-02-15T09:43:35.634Z,7.97
2019-02-15T09:46:07.322Z,7.72
2019-02-15T09:48:38.976Z,7.03
2019-02-15T09:51:10.615Z,7.70
2019-02-15T09:53:42.778Z,8.60
2019-02-15T09:56:17.217Z,8.23
2019-02-15T09:58:49.101Z,7.90
2019-02-15T10:01:21.487Z,8.48
2019-02-15T10:03:54.879Z,8.38
2019-02-15T10:06:28.044Z,7.47
2019-02-15T10:08:59.685Z,7.95
2019-02-15T10:11:31.348Z,8.80
2019-02-15T10:14:02.985Z,7.47
2019-02-15T10:16:34.650Z,7.80
2019-02-15T10:19:06.286Z,8.05
2019-02-15T10:21:41.585Z,7.37
2019-02-15T10:24:13.265Z,7.90
2019-02-15T10:26:44.941Z,9.80
2019-02-15T10:29:16.593Z,7.08
2019-02-15T10:31:50.709Z,7.83
2019-02-15T10:34:22.689Z,7.72
2019-02-15T10:36:54.369Z,8.55
2019-02-15T10:39:26.015Z,6.05
2019-02-15T10:41:58.193Z,6.70
2019-02-15T10:44:29.849Z,7.42
2019-02-15T10:47:01.962Z,7.67
2019-02-15T10:49:41.153Z,7.92
2019-02-15T10:52:12.788Z,8.80
2019-02-15T10:54:46.677Z,7.80
2019-02-15T10:57:18.550Z,7.47
2019-02-15T10:59:54.319Z,7.97
2019-02-15T11:02:26.709Z,8.18
2019-02-15T11:04:58.383Z,8.15
2019-02-15T11:07:30.102Z,7.70
2019-02-15T11:10:01.960Z,7.95
2019-02-15T11:12:33.861Z,6.15
2019-02-15T11:15:06.358Z,7.33
2019-02-15T11:17:38.015Z,5.92
2019-02-15T11:20:11.141Z,6.78
2019-02-15T11:22:43.127Z,5.67
2019-02-15T11:25:15.221Z,6.35
2019-02-15T11:27:46.877Z,6.58
2019-02-15T11:30:18.505Z,6.37
2019-02-15T11:32:50.162Z,6.70
2019-02-15T11:35:23.956Z,6.65
2019-02-15T11:37:55.612Z,7.42
2019-02-15T11:40:27.344Z,6.67
2019-02-15T11:42:59.168Z,6.12
2019-02-15T11:45:30.907Z,6.80
2019-02-15T11:48:02.543Z,6.62
2019-02-15T11:50:34.195Z,6.25
2019-02-15T11:53:05.839Z,7.20
2019-02-15T11:55:37.473Z,7.35
2019-02-15T11:58:09.195Z,6.08
2019-02-15T12:00:41.140Z,6.78
2019-02-15T12:03:14.477Z,6.95
2019-02-15T12:05:46.130Z,6.67
2019-02-15T12:08:17.796Z,7.53
2019-02-15T12:10:49.437Z,7.75
2019-02-15T12:13:21.084Z,6.00
2019-02-15T12:15:52.717Z,6.00
2019-02-15T12:18:24.477Z,6.70
2019-02-15T12:20:56.220Z,7.62
2019-02-15T12:23:30.510Z,7.30
2019-02-15T12:26:02.147Z,7.58
2019-02-15T12:28:33.806Z,5.80
2019-02-15T12:31:05.774Z,6.65
2019-02-15T12:33:37.444Z,7.15
2019-02-15T12:36:09.106Z,6.60
2019-02-15T12:38:40.759Z,7.72
2019-02-15T12:41:12.384Z,7.25
2019-02-15T12:43:47.614Z,5.72
2019-02-15T12:46:24.302Z,6.30
2019-02-15T12:48:56.012Z,5.90
2019-02-15T12:51:27.673Z,6.65
2019-02-15T12:53:59.333Z,5.67
2019-02-15T12:56:30.988Z,7.15
2019-02-15T12:59:02.632Z,5.00
2019-02-15T13:01:34.277Z,5.97
2019-02-15T13:04:08.092Z,5.25
2019-02-15T13:06:39.721Z,5.62
2019-02-15T13:09:14.337Z,5.53
2019-02-15T13:11:45.961Z,3.77
2019-02-15T13:14:17.646Z,4.28
2019-02-15T13:16:49.299Z,4.62
2019-02-15T13:19:20.938Z,3.85
2019-02-15T13:21:52.560Z,3.92
2019-02-15T13:24:24.221Z,4.37
2019-02-15T13:26:55.878Z,4.95
2019-02-15T13:29:27.535Z,5.08
2019-02-15T13:31:59.170Z,5.28
2019-02-15T13:34:30.802Z,4.28
2019-02-15T13:37:02.436Z,3.95
2019-02-15T13:39:34.094Z,4.85
2019-02-15T13:42:05.730Z,4.15
2019-02-15T13:44:38.196Z,4.72
2019-02-15T13:47:09.975Z,4.35
2019-02-15T13:49:41.648Z,4.08
2019-02-15T13:52:13.373Z,4.50
2019-02-15T13:54:45.087Z,5.05
2019-02-15T13:57:16.789Z,4.95
2019-02-15T13:59:48.523Z,4.63
2019-02-15T14:02:20.278Z,4.37
2019-02-15T14:04:52.005Z,3.67
2019-02-15T14:07:23.656Z,4.27
2019-02-15T14:09:55.297Z,3.90
2019-02-15T14:12:26.938Z,3.43
2019-02-15T14:14:58.593Z,4.20
2019-02-15T14:17:30.220Z,3.93
2019-02-15T14:20:01.902Z,3.70
2019-02-15T14:22:33.567Z,4.60
2019-02-15T14:25:06.041Z,3.63
2019-02-15T14:27:37.671Z,4.93
2019-02-15T14:30:09.749Z,3.17
2019-02-15T14:32:41.493Z,2.83
2019-02-15T14:35:13.365Z,2.93
2019-02-15T14:37:45.077Z,3.27
2019-02-15T14:40:16.934Z,3.80
2019-02-15T14:42:49.287Z,2.93
2019-02-15T14:45:21.601Z,3.83
2019-02-15T14:47:55.199Z,4.60
2019-02-15T14:50:27.149Z,52.60
2019-02-15T14:52:59.398Z,5.17
2019-02-15T14:55:31.115Z,2.43
2019-02-15T14:58:02.758Z,1.83
2019-02-15T15:00:34.480Z,2.00
2019-02-15T15:03:06.097Z,2.40
2019-02-15T15:05:37.866Z,3.13
2019-02-15T15:08:09.505Z,3.00
2019-02-15T15:10:41.157Z,3.10
2019-02-15T15:13:16.380Z,3.87
2019-02-15T15:15:48.022Z,1.83
2019-02-15T15:18:19.658Z,3.27
2019-02-15T15:20:51.411Z,2.73
2019-02-15T15:23:23.030Z,2.87
2019-02-15T15:25:55.692Z,2.83
2019-02-15T15:28:28.085Z,2.27
2019-02-15T15:30:59.782Z,3.20
2019-02-15T15:33:31.409Z,3.30
2019-02-15T15:36:03.145Z,3.30
2019-02-15T15:38:34.778Z,4.60
2019-02-15T15:41:06.499Z,3.03
2019-02-15T15:43:41.756Z,3.33
2019-02-15T15:46:13.532Z,2.80
2019-02-15T15:48:46.690Z,2.00
2019-02-15T15:51:18.397Z,2.40
2019-02-15T15:53:50.114Z,2.37
2019-02-15T15:56:21.851Z,2.30
2019-02-15T15:58:53.475Z,3.43
2019-02-15T16:01:25.188Z,3.90
2019-02-15T16:03:56.920Z,4.27
2019-02-15T16:06:28.566Z,4.23
2019-02-15T16:09:00.321Z,3.23
2019-02-15T16:11:32.584Z,3.10
2019-02-15T16:14:04.282Z,4.00
2019-02-15T16:16:35.923Z,4.63
2019-02-15T16:19:07.568Z,3.63
2019-02-15T16:21:39.201Z,4.90
2019-02-15T16:24:12.865Z,5.33
2019-02-15T16:26:44.723Z,6.53
2019-02-15T16:29:16.348Z,5.00
2019-02-15T16:31:48.112Z,4.63
2019-02-15T16:34:19.810Z,4.20
2019-02-15T16:36:51.445Z,5.03
2019-02-15T16:39:23.069Z,4.63
2019-02-15T16:41:54.701Z,3.57
2019-02-15T16:44:26.321Z,3.77
2019-02-15T16:46:57.985Z,3.47
2019-02-15T16:49:29.614Z,4.17
2019-02-15T16:52:01.254Z,3.53
2019-02-15T16:54:32.877Z,2.87
2019-02-15T16:57:04.532Z,3.60
2019-02-15T16:59:36.174Z,4.40
2019-02-15T17:02:07.916Z,3.13
2019-02-15T17:04:39.543Z,3.27
2019-02-15T17:07:11.225Z,3.97
2019-02-15T17:09:42.934Z,4.77
2019-02-15T17:12:14.565Z,3.47
2019-02-15T17:14:46.211Z,3.77
2019-02-15T17:17:17.959Z,3.47
2019-02-15T17:19:49.594Z,4.17
2019-02-15T17:22:21.232Z,4.57
2019-02-15T17:24:52.868Z,4.73
2019-02-15T17:27:24.505Z,5.73
2019-02-15T17:29:56.147Z,3.80
2019-02-15T17:32:27.793Z,3.77
2019-02-15T17:34:59.481Z,3.60
2019-02-15T17:37:31.300Z,3.80
2019-02-15T17:40:03.659Z,3.20
2019-02-15T17:42:35.296Z,4.07
2019-02-15T17:45:07.565Z,4.07
2019-02-15T17:47:39.297Z,4.07
2019-02-15T17:50:11.065Z,3.87
2019-02-15T17:52:42.801Z,3.43
2019-02-15T17:55:14.434Z,4.33
2019-02-15T17:57:46.093Z,3.77
2019-02-15T18:00:20.246Z,3.43
2019-02-15T18:02:51.898Z,3.10
2019-02-15T18:05:23.719Z,4.07
2019-02-15T18:07:55.525Z,4.33
2019-02-15T18:10:27.145Z,3.77
2019-02-15T18:12:58.807Z,3.67
2019-02-15T18:15:30.770Z,3.47
2019-02-15T18:18:02.409Z,3.60
2019-02-15T18:20:34.033Z,4.70
2019-02-15T18:23:05.665Z,3.40
2019-02-15T18:25:37.302Z,4.03
2019-02-15T18:28:08.946Z,3.13
2019-02-15T18:30:40.572Z,3.47
2019-02-15T18:33:12.434Z,4.10
2019-02-15T18:35:44.065Z,4.37
2019-02-15T18:38:15.724Z,3.77
2019-02-15T18:40:47.362Z,4.20
2019-02-15T18:43:19.026Z,4.03
2019-02-15T18:45:50.735Z,4.83
2019-02-15T18:48:22.387Z,4.63
2019-02-15T18:50:54.049Z,5.53
2019-02-15T18:53:25.694Z,4.80
2019-02-15T18:55:57.462Z,5.00
2019-02-15T18:58:29.121Z,4.93
2019-02-15T19:01:00.761Z,5.17
2019-02-15T19:03:32.646Z,4.47
2019-02-15T19:06:05.233Z,5.43
2019-02-15T19:08:36.923Z,5.23
2019-02-15T19:11:08.782Z,4.67
2019-02-15T19:13:40.457Z,5.07
2019-02-15T19:16:12.093Z,4.13
2019-02-15T19:18:43.745Z,4.37
2019-02-15T19:21:15.392Z,3.87
2019-02-15T19:23:47.036Z,4.63
2019-02-15T19:26:18.698Z,4.90
2019-02-15T19:28:50.359Z,4.97
2019-02-15T19:31:22.006Z,4.90
2019-02-15T19:33:53.657Z,4.73
2019-02-15T19:36:25.325Z,5.10
2019-02-15T19:38:56.975Z,5.63
2019-02-15T19:41:28.618Z,6.00
2019-02-15T19:44:00.274Z,5.37
2019-02-15T19:46:31.972Z,6.33
2019-02-15T19:49:03.739Z,4.40
2019-02-15T19:51:35.973Z,4.27
2019-02-15T19:54:07.765Z,4.10
2019-02-15T19:56:39.511Z,4.63
2019-02-15T19:59:11.316Z,4.57
2019-02-15T20:01:43.035Z,4.67
2019-02-15T20:04:14.834Z,4.27
2019-02-15T20:06:46.688Z,4.77
2019-02-15T20:09:18.469Z,3.73
2019-02-15T20:11:50.248Z,4.20
2019-02-15T20:14:21.942Z,3.93
2019-02-15T20:16:53.632Z,4.53
2019-02-15T20:19:25.363Z,4.23
2019-02-15T20:21:57.032Z,3.87
2019-02-15T20:24:28.733Z,4.10
2019-02-15T20:27:00.397Z,3.67
2019-02-15T20:29:32.218Z,4.20
2019-02-15T20:32:03.928Z,4.30
2019-02-15T20:34:45.022Z,4.27
2019-02-15T20:37:09.215Z,4.20
2019-02-15T20:39:40.935Z,4.13
2019-02-15T20:42:12.766Z,4.10
2019-02-15T20:44:44.592Z,4.70
2019-02-15T20:47:16.366Z,5.23
2019-02-15T20:49:48.076Z,5.20
2019-02-15T20:52:19.915Z,5.53
2019-02-15T20:54:51.706Z,5.87
2019-02-15T20:57:23.456Z,5.63
2019-02-15T20:59:55.224Z,5.63
2019-02-15T21:02:26.901Z,5.10
2019-02-15T21:04:58.562Z,5.83
2019-02-15T21:07:30.270Z,7.60
2019-02-15T21:10:01.975Z,6.17
2019-02-15T21:12:33.627Z,5.73
2019-02-15T21:15:05.635Z,5.73
2019-02-15T21:17:37.274Z,6.43
2019-02-15T21:20:09.637Z,6.03
2019-02-15T21:22:41.404Z,6.27
2019-02-15T21:25:13.333Z,6.47
2019-02-15T21:27:44.974Z,6.70
2019-02-15T21:30:16.693Z,6.00
2019-02-15T21:32:48.518Z,6.93
2019-02-15T21:35:20.190Z,6.47
2019-02-15T21:37:51.865Z,5.60
2019-02-15T21:40:23.516Z,5.63
2019-02-15T21:42:55.173Z,6.17
2019-02-15T21:45:26.805Z,6.53
2019-02-15T21:47:58.443Z,6.37
2019-02-15T21:50:30.085Z,6.17
2019-02-15T21:53:01.734Z,6.70
2019-02-15T21:55:33.373Z,6.97
2019-02-15T21:58:05.038Z,7.13
2019-02-15T22:00:36.697Z,7.40
2019-02-15T22:03:08.337Z,7.50
2019-02-15T22:05:39.988Z,7.87
2019-02-15T22:08:11.624Z,6.97
2019-02-15T22:10:43.262Z,7.07
2019-02-15T22:13:14.965Z,7.03
2019-02-15T22:15:46.618Z,7.43
2019-02-15T22:18:18.255Z,7.93
2019-02-15T22:20:49.896Z,7.80
2019-02-15T22:23:21.520Z,7.60
2019-02-15T22:25:53.178Z,8.03
2019-02-15T22:28:24.827Z,8.37
2019-02-15T22:30:56.463Z,8.43
2019-02-15T22:33:28.210Z,7.53
2019-02-15T22:35:59.854Z,9.87
2019-02-15T22:38:31.467Z,9.17
2019-02-15T22:41:14.060Z,8.83
2019-02-15T22:43:45.816Z,10.87
2019-02-15T22:46:17.452Z,10.97
2019-02-15T22:48:49.083Z,10.83
2019-02-15T22:51:20.717Z,11.40
2019-02-15T22:53:52.378Z,10.60
2019-02-15T22:56:24.066Z,11.50
2019-02-15T22:58:55.714Z,10.70
2019-02-15T23:01:27.657Z,10.83
2019-02-15T23:03:59.301Z,9.60
2019-02-15T23:06:30.958Z,8.63
2019-02-15T23:09:04.813Z,9.47
2019-02-15T23:11:36.464Z,9.40
2019-02-15T23:14:08.089Z,9.73
2019-02-15T23:16:39.730Z,9.83
2019-02-15T23:19:11.365Z,10.37
2019-02-15T23:21:43.006Z,10.23
2019-02-15T23:24:14.664Z,10.93
2019-02-15T23:26:46.310Z,10.83
2019-02-15T23:29:17.937Z,10.47
2019-02-15T23:31:49.606Z,11.47
2019-02-15T23:34:21.257Z,12.80
2019-02-15T23:36:52.906Z,12.90
2019-02-15T23:39:24.538Z,12.73
2019-02-15T23:41:56.190Z,13.23
2019-02-15T23:44:28.330Z,13.27
2019-02-15T23:47:00.065Z,13.30
2019-02-15T23:49:31.699Z,11.83
2019-02-15T23:52:03.460Z,11.03
2019-02-15T23:54:35.120Z,13.03
2019-02-15T23:57:06.746Z,12.13
2019-02-15T23:59:38.382Z,12.57
